Time;durP1;ratioP1;P1;durP2;ratioP2;P2;SDS_P1;SDS_P2;PMS_P1;PMS_P2;Temp;Humidity;BMP_temperature;BMP_pressure;BME280_temperature;BME280_humidity;BME280_pressure;Samples;Min_cycle;Max_cycle;Signal;HPM_P1;HPM_P2
2022/11/29 00:00:31;;;;;;;6.50;4.28;;;;;;;;;;6192733;23;20043;-80
2022/11/29 00:02:57;;;;;;;8.30;4.78;;;;;;;;;;6192826;23;20000;-81
2022/11/29 00:05:23;;;;;;;11.93;6.95;;;;;;;;;;6194439;23;20321;-80
2022/11/29 00:07:49;;;;;;;10.35;6.15;;;;;;;;;;6221356;23;20454;-80
2022/11/29 00:10:15;;;;;;;8.40;4.80;;;;;;;;;;6193501;23;20001;-81
2022/11/29 00:12:41;;;;;;;8.65;5.28;;;;;;;;;;6193081;23;20013;-81
2022/11/29 00:15:07;;;;;;;9.57;5.28;;;;;;;;;;6221038;23;20028;-81
2022/11/29 00:17:34;;;;;;;10.15;5.10;;;;;;;;;;6220334;23;20004;-80
2022/11/29 00:20:00;;;;;;;10.07;5.63;;;;;;;;;;6219202;23;20087;-82
2022/11/29 00:22:26;;;;;;;9.60;6.00;;;;;;;;;;6219115;23;20012;-79
2022/11/29 00:24:52;;;;;;;12.13;6.78;;;;;;;;;;6219832;23;20000;-79
2022/11/29 00:27:18;;;;;;;10.25;6.35;;;;;;;;;;6219618;23;20015;-81
2022/11/29 00:29:44;;;;;;;8.68;5.78;;;;;;;;;;6193445;23;20012;-80
2022/11/29 00:32:10;;;;;;;12.85;5.97;;;;;;;;;;6220404;23;20005;-82
2022/11/29 00:34:36;;;;;;;13.65;6.13;;;;;;;;;;6193839;23;20000;-84
2022/11/29 00:37:03;;;;;;;9.32;6.00;;;;;;;;;;6214450;23;19997;-81
2022/11/29 00:39:29;;;;;;;9.73;6.05;;;;;;;;;;6213661;22;20076;-86
2022/11/29 00:41:55;;;;;;;13.02;6.07;;;;;;;;;;6215659;23;19989;-82
2022/11/29 00:44:21;;;;;;;11.35;5.57;;;;;;;;;;6215892;23;20020;-83
2022/11/29 00:46:48;;;;;;;14.70;6.70;;;;;;;;;;6213510;23;20059;-81
2022/11/29 00:49:17;;;;;;;11.13;5.78;;;;;;;;;;6211185;23;19985;-82
2022/11/29 00:51:43;;;;;;;12.23;5.05;;;;;;;;;;6212755;23;20034;-83
2022/11/29 00:54:09;;;;;;;12.23;5.88;;;;;;;;;;6237968;23;20020;-82
2022/11/29 00:56:35;;;;;;;12.23;6.07;;;;;;;;;;6237477;23;20029;-80
2022/11/29 00:59:01;;;;;;;10.30;6.15;;;;;;;;;;6210937;23;20020;-82
2022/11/29 01:01:27;;;;;;;12.38;4.90;;;;;;;;;;6205174;23;20000;-85
2022/11/29 01:03:53;;;;;;;12.00;5.70;;;;;;;;;;6234525;23;20008;-82
2022/11/29 01:06:19;;;;;;;11.15;6.00;;;;;;;;;;6206808;23;20001;-84
2022/11/29 01:08:46;;;;;;;9.93;5.43;;;;;;;;;;6209396;23;20005;-84
2022/11/29 01:11:14;;;;;;;12.25;5.68;;;;;;;;;;6203383;23;20004;-85
2022/11/29 01:13:40;;;;;;;14.60;6.18;;;;;;;;;;6233768;23;20019;-82
2022/11/29 01:16:07;;;;;;;9.88;5.88;;;;;;;;;;6221402;23;20020;-84
2022/11/29 01:18:33;;;;;;;12.05;6.13;;;;;;;;;;6238236;23;19992;-84
2022/11/29 01:21:02;;;;;;;12.55;6.28;;;8.80;99.90;;;;;;6237221;23;20032;-83
2022/11/29 01:23:28;;;;;;;12.30;6.15;;;;;;;;;;6229379;23;20016;-85
2022/11/29 01:25:55;;;;;;;14.13;7.30;;;;;;;;;;6231900;23;20004;-82
2022/11/29 01:28:22;;;;;;;10.82;6.20;;;;;;;;;;6230658;23;20008;-85
2022/11/29 01:30:48;;;;;;;16.60;6.07;;;;;;;;;;6231658;23;20004;-82
2022/11/29 01:33:14;;;;;;;14.68;6.70;;;;;;;;;;6233626;23;20004;-83
2022/11/29 01:35:40;;;;;;;16.38;7.22;;;;;;;;;;6231072;23;20063;-82
2022/11/29 01:38:06;;;;;;;14.30;7.43;;;;;;;;;;6226054;23;20000;-80
2022/11/29 01:40:32;;;;;;;14.27;6.80;;;;;;;;;;6227294;23;20005;-82
2022/11/29 01:42:58;;;;;;;15.48;7.30;;;;;;;;;;6222539;23;20000;-84
2022/11/29 01:45:25;;;;;;;14.13;7.70;;;;;;;;;;6223564;23;20005;-81
2022/11/29 01:47:54;;;;;;;17.88;8.18;;;;;;;;;;6221766;23;20028;-81
2022/11/29 01:50:20;;;;;;;17.15;7.38;;;;;;;;;;6221692;23;20004;-81
2022/11/29 01:52:47;;;;;;;20.35;8.68;;;;;;;;;;6226877;23;20001;-84
2022/11/29 01:55:13;;;;;;;17.95;7.85;;;;;;;;;;6224937;23;20027;-83
2022/11/29 01:57:40;;;;;;;16.30;7.63;;;;;;;;;;6222243;23;20000;-80
2022/11/29 02:00:09;;;;;;;15.18;8.30;;;;;;;;;;6224599;23;20028;-80
2022/11/29 02:02:41;;;;;;;16.67;8.32;;;;;;;;;;6218997;23;20001;-80
2022/11/29 02:05:09;;;;;;;13.38;7.80;;;;;;;;;;6187817;23;20021;-84
2022/11/29 02:07:36;;;;;;;19.38;8.10;;;;;;;;;;6194939;23;19997;-82
2022/11/29 02:10:04;;;;;;;18.20;8.02;;;;;;;;;;6202968;23;20011;-83
2022/11/29 02:12:40;;;;;;;15.77;7.43;;;;;;;;;;6194055;23;20008;-83
2022/11/29 02:38:44;;;;;;;14.90;7.30;;;;;;;;;;6218702;23;20016;-81
2022/11/29 08:35:11;;;;;;;25.05;9.75;;;;;;;;;;6220743;23;20036;-82
2022/11/29 08:59:45;;;;;;;20.23;8.88;;;;;;;;;;6222352;23;20518;-80
2022/11/29 09:02:11;;;;;;;18.92;9.23;;;;;;;;;;6227128;23;20425;-80
2022/11/29 09:04:40;;;;;;;21.98;10.15;;;;;;;;;;6198745;23;20011;-81
2022/11/29 09:07:06;;;;;;;26.58;10.65;;;;;;;;;;6204824;23;20000;-80
2022/11/29 09:09:32;;;;;;;20.20;8.88;;;;;;;;;;6224662;23;19997;-82
2022/11/29 09:11:58;;;;;;;19.00;9.38;;;;;;;;;;6208315;23;20005;-81
2022/11/29 09:14:25;;;;;;;26.45;10.13;;;;;;;;;;6228478;23;20001;-81
2022/11/29 09:16:51;;;;;;;22.55;9.63;;;;;;;;;;6200278;23;20072;-83
2022/11/29 09:19:17;;;;;;;20.13;10.27;;;;;;;;;;6230624;23;19997;-82
2022/11/29 09:21:45;;;;;;;20.67;9.63;;;;;;;;;;6228597;23;20015;-81
2022/11/29 09:24:12;;;;;;;22.30;9.68;;;;;;;;;;6199302;23;20005;-80
2022/11/29 09:26:39;;;;;;;22.40;10.73;;;;;;;;;;6199509;23;20008;-82
2022/11/29 09:29:06;;;;;;;22.75;11.60;;;;;;;;;;6198470;23;20466;-82
2022/11/29 09:31:32;;;;;;;22.25;10.43;;;;;;;;;;6225242;23;20000;-81
2022/11/29 09:33:58;;;;;;;29.75;10.40;;;;;;;;;;6195282;23;20009;-80
2022/11/29 09:36:24;;;;;;;20.30;10.65;;;;;;;;;;6199874;23;20016;-81
2022/11/29 09:38:50;;;;;;;22.95;11.25;;;;;;;;;;6229265;23;20070;-83
2022/11/29 09:41:35;;;;;;;21.25;10.50;;;;;;;;;;6203859;23;20450;-82
2022/11/29 09:44:27;;;;;;;21.58;11.00;;;;;;;;;;6229601;23;20020;-83
2022/11/29 09:47:01;;;;;;;20.70;10.88;;;;;;;;;;6204395;23;20008;-84
2022/11/29 09:49:33;;;;;;;21.33;10.73;;;;;;;;;;6231479;23;20005;-83
2022/11/29 09:52:02;;;;;;;29.23;12.73;;;;;;;;;;6230623;23;20004;-82
2022/11/29 09:54:43;;;;;;;25.05;12.82;;;;;;;;;;6232389;23;20001;-82
2022/11/29 09:57:10;;;;;;;25.77;12.10;;;;;;;;;;6206001;23;20028;-83
2022/11/29 09:59:42;;;;;;;24.45;12.27;;;;;;;;;;6204746;23;20352;-82
2022/11/29 10:02:11;;;;;;;28.58;13.45;;;;;;;;;;6232665;23;20024;-84
2022/11/29 10:04:39;;;;;;;27.63;12.93;;;;;;;;;;6237539;22;20008;-82
2022/11/29 10:07:28;;;;;;;27.92;13.43;;;;;;;;;;6237577;23;20001;-83
2022/11/29 10:09:56;;;;;;;32.40;13.05;;;;;;;;;;6233892;22;19989;-83
2022/11/29 10:12:31;;;;;;;30.38;13.13;;;;;;;;;;6212212;23;20036;-82
2022/11/29 10:15:00;;;;;;;24.73;12.32;;;;;;;;;;6210569;23;20012;-84
2022/11/29 10:17:33;;;;;;;22.27;12.35;;;;;;;;;;6237177;23;20000;-83
2022/11/29 10:20:04;;;;;;;20.48;11.60;;;;;;;;;;6230959;23;20009;-84
2022/11/29 10:22:43;;;;;;;22.38;11.02;;;;;;;;;;6221354;23;20001;-81
2022/11/29 10:25:15;;;;;;;25.30;11.02;;;;;;;;;;6196701;23;20000;-83
2022/11/29 10:27:41;;;;;;;22.88;9.48;;;;;;;;;;6195685;23;20616;-82
2022/11/29 10:30:14;;;;;;;22.65;10.27;;;9.70;99.90;;;;;;6197035;23;20035;-82
2022/11/29 10:32:41;;;;;;;19.77;10.02;;;;;;;;;;6198071;23;20058;-82
2022/11/29 10:35:13;;;;;;;24.40;11.18;;;;;;;;;;6198472;23;20004;-82
2022/11/29 10:37:39;;;;;;;25.15;10.43;;;;;;;;;;6229863;23;20069;-83
2022/11/29 10:40:11;;;;;;;19.23;9.95;;;;;;;;;;6235737;23;20094;-81
2022/11/29 10:42:52;;;;;;;21.95;11.40;;;;;;;;;;6214080;22;20005;-83
2022/11/29 10:45:32;;;;;;;;;;;9.90;99.90;;;;;;6216928;22;20468;-84
2022/11/29 10:51:17;;;;;;;22.65;8.82;;;;;;;;;;6243448;22;20012;-87
2022/11/29 10:53:44;;;;;;;21.20;10.07;;;;;;;;;;6244069;22;20031;-86
2022/11/29 10:56:23;;;;;;;20.02;9.30;;;;;;;;;;6204508;23;20029;-86
2022/11/29 10:59:04;;;;;;;17.58;8.38;;;;;;;;;;6244629;22;20031;-87
2022/11/29 11:01:43;;;;;;;14.52;7.72;;;;;;;;;;6244107;22;19985;-85
2022/11/29 11:04:36;;;;;;;15.30;7.53;;;;;;;;;;6217668;22;19997;-85
2022/11/29 11:07:03;;;;;;;15.35;7.53;;;;;;;;;;6210265;23;20013;-87
2022/11/29 11:09:30;;;;;;;17.83;8.18;;;;;;;;;;6212243;23;19989;-83
2022/11/29 11:12:07;;;;;;;15.57;6.07;;;;;;;;;;6172984;23;20012;-82
2022/11/29 11:14:38;;;;;;;14.52;6.20;;;;;;;;;;6172593;23;20009;-81
2022/11/29 11:17:24;;;;;;;;;;;10.30;99.90;;;;;;6172675;23;20009;-82
2022/11/29 11:20:03;;;;;;;16.95;6.63;;;;;;;;;;6199046;23;19932;-82
2022/11/29 11:22:31;;;;;;;17.77;6.93;;;;;;;;;;6202215;23;20489;-83
2022/11/29 11:24:59;;;;;;;11.93;5.10;;;;;;;;;;6172823;23;20005;-84
2022/11/29 11:27:51;;;;;;;17.23;6.25;;;;;;;;;;6200303;23;19997;-83
2022/11/29 11:30:40;;;;;;;15.80;6.13;;;;;;;;;;6174407;23;20209;-82
2022/11/29 11:33:07;;;;;;;12.93;5.55;;;;;;;;;;6205166;23;20001;-84
2022/11/29 11:35:33;;;;;;;10.38;5.38;;;;;;;;;;6187854;23;20009;-83
2022/11/29 11:37:59;;;;;;;16.45;4.78;;;;;;;;;;6178151;23;20005;-81
2022/11/29 11:40:30;;;;;;;12.43;4.70;;;;;;;;;;6201067;23;20009;-82
2022/11/29 11:42:57;;;;;;;12.45;5.65;;;;;;;;;;6172244;23;20001;-82
2022/11/29 11:45:43;;;;;;;14.60;5.07;;;;;;;;;;6175438;23;20020;-83
2022/11/29 11:48:14;;;;;;;11.48;3.90;;;;;;;;;;6197027;23;20001;-84
2022/11/29 11:50:43;;;;;;;12.38;5.82;;;;;;;;;;6173275;23;20095;-83
2022/11/29 11:53:18;;;;;;;14.20;4.30;;;;;;;;;;6174193;23;20005;-85
2022/11/29 11:55:53;;;;;;;11.93;4.15;;;;;;;;;;6173548;23;20036;-84
2022/11/29 11:58:23;;;;;;;12.45;4.30;;;;;;;;;;6200278;23;20001;-82
2022/11/29 12:00:52;;;;;;;11.90;4.20;;;;;;;;;;6200495;23;20020;-82
2022/11/29 12:03:37;;;;;;;13.50;5.20;;;;;;;;;;6202277;23;20053;-84
2022/11/29 12:06:23;;;;;;;18.17;5.28;;;;;;;;;;6177681;23;20005;-81
2022/11/29 12:08:50;;;;;;;16.73;5.20;;;;;;;;;;6150844;23;20012;-83
2022/11/29 12:11:17;;;;;;;11.10;4.90;;;;;;;;;;6177351;23;20005;-82
2022/11/29 12:13:47;;;;;;;10.73;4.97;;;;;;;;;;6179880;23;20001;-81
2022/11/29 12:16:26;;;;;;;9.75;4.00;;;;;;;;;;6177738;23;20017;-83
2022/11/29 12:18:56;;;;;;;11.48;4.85;;;;;;;;;;6177511;23;20005;-82
2022/11/29 12:21:23;;;;;;;11.18;4.88;;;;;;;;;;6177770;23;20021;-80
2022/11/29 12:23:52;;;;;;;14.10;4.78;;;;;;;;;;6201392;23;20004;-82
2022/11/29 12:26:28;;;;;;;11.45;5.03;;;;;;;;;;6176998;23;20032;-82
2022/11/29 12:28:54;;;;;;;12.38;5.32;;;;;;;;;;6200338;23;20001;-82
2022/11/29 12:31:34;;;;;;;12.40;4.70;;;;;;;;;;6201456;23;20005;-82
2022/11/29 12:34:19;;;;;;;10.20;5.10;;;;;;;;;;6176165;23;20499;-82
2022/11/29 12:37:08;;;;;;;13.45;5.43;;;;;;;;;;6203739;23;20017;-84
2022/11/29 12:39:34;;;;;;;13.93;5.18;;;;;;;;;;6149925;23;20013;-84
2022/11/29 12:42:10;;;;;;;13.13;5.30;;;;;;;;;;6173970;23;20004;-82
2022/11/29 12:44:46;;;;;;;11.85;5.35;;;;;;;;;;6200580;23;20001;-81
2022/11/29 12:47:22;;;;;;;10.27;5.20;;;;;;;;;;6173431;23;20087;-82
2022/11/29 12:50:00;;;;;;;14.27;5.50;;;;;;;;;;6175178;23;20075;-83
2022/11/29 12:52:33;;;;;;;10.30;4.80;;;;;;;;;;6203455;23;20004;-82
2022/11/29 12:55:26;;;;;;;15.60;5.22;;;;;;;;;;6177672;23;20016;-82
2022/11/29 12:57:58;;;;;;;11.77;5.40;;;;;;;;;;6205080;23;19991;-83
2022/11/29 13:00:24;;;;;;;12.65;5.18;;;;;;;;;;6211277;23;20017;-83
2022/11/29 13:03:13;;;;;;;12.15;4.85;;;;;;;;;;6184159;23;20013;-85
2022/11/29 13:06:01;;;;;;;10.65;4.60;;;;;;;;;;6212463;23;19993;-85
2022/11/29 13:08:43;;;;;;;12.40;4.75;;;;;;;;;;6187046;23;20009;-82
2022/11/29 13:14:07;;;;;;;15.90;5.00;;;;;;;;;;6198267;23;20021;-82
2022/11/29 13:16:36;;;;;;;12.43;5.00;;;;;;;;;;6193168;23;20005;-83
2022/11/29 13:19:14;;;;;;;13.88;5.43;;;;;;;;;;6170311;23;20013;-81
2022/11/29 13:21:46;;;;;;;12.77;5.03;;;;;;;;;;6172459;23;20001;-82
2022/11/29 13:24:19;;;;;;;13.55;4.90;;;;;;;;;;6198161;23;19997;-83
2022/11/29 13:26:45;;;;;;;11.02;4.80;;;;;;;;;;6198226;23;19997;-83
2022/11/29 13:29:14;;;;;;;11.75;5.35;;;;;;;;;;6171308;23;20016;-81
2022/11/29 13:31:41;;;;;;;13.98;5.35;;;;;;;;;;6194985;23;20060;-82
2022/11/29 13:34:16;;;;;;;13.70;5.28;;;;;;;;;;6171310;23;20009;-81
2022/11/29 13:36:42;;;;;;;9.07;4.80;;;;;;;;;;6172439;23;20020;-82
2022/11/29 13:39:14;;;;;;;13.48;5.25;;;;;;;;;;6176962;23;20001;-82
2022/11/29 13:41:45;;;;;;;18.35;5.80;;;;;;;;;;6173429;23;20005;-83
2022/11/29 13:44:15;;;;;;;14.10;4.38;;;;;;;;;;6172439;23;20005;-81
2022/11/29 13:46:42;;;;;;;11.52;4.78;;;;;;;;;;6174901;23;20007;-82
2022/11/29 13:49:19;;;;;;;12.63;4.82;;;;;;;;;;6179266;23;20069;-81
2022/11/29 13:51:45;;;;;;;13.63;5.20;;;;;;;;;;6210312;23;20015;-82
2022/11/29 13:54:31;;;;;;;15.75;5.78;;;;;;;;;;6186610;23;20001;-84
2022/11/29 13:57:04;;;;;;;12.75;5.00;;;;;;;;;;6186759;23;20036;-81
2022/11/29 13:59:32;;;;;;;14.07;4.78;;;;;;;;;;6186449;23;20020;-84
2022/11/29 14:01:58;;;;;;;12.75;4.63;;;;;;;;;;6186860;23;20017;-83
2022/11/29 14:04:33;;;;;;;11.15;4.63;;;;;;;;;;6209126;23;20005;-83
2022/11/29 14:07:08;;;;;;;12.25;4.38;;;;;;;;;;6176545;23;20414;-81
2022/11/29 14:09:43;;;;;;;13.98;5.60;;;;;;;;;;6174732;23;20009;-83
2022/11/29 14:12:16;;;;;;;10.57;4.60;;;;;;;;;;6178179;23;20024;-83
2022/11/29 14:14:54;;;;;;;13.35;4.88;;;;;;;;;;6180432;23;20005;-83
2022/11/29 14:17:33;;;;;;;12.38;4.78;;;;;;;;;;6172935;23;20009;-81
2022/11/29 14:20:42;;;;;;;14.23;4.45;;;10.30;99.90;;;;;;6173437;23;20014;-83
2022/11/29 14:23:11;;;;;;;7.63;3.90;;;;;;;;;;6200823;23;20013;-84
2022/11/29 14:25:42;;;;;;;12.93;4.53;;;;;;;;;;6175097;23;19997;-81
2022/11/29 14:28:17;;;;;;;14.00;4.60;;;;;;;;;;6176115;23;20001;-82
2022/11/29 14:30:43;;;;;;;12.20;4.35;;;;;;;;;;6202268;23;20081;-82
2022/11/29 14:33:12;;;;;;;11.35;4.80;;;;;;;;;;6174467;23;20009;-82
2022/11/29 14:36:07;;;;;;;13.93;4.80;;;;;;;;;;6199667;23;20329;-82
2022/11/29 14:38:39;;;;;;;9.38;3.83;;;;;;;;;;6120350;23;20010;-81
2022/11/29 14:41:43;;;;;;;9.85;4.50;;;10.30;99.90;;;;;;6173062;23;20005;-81
2022/11/29 14:44:16;;;;;;;11.77;4.63;;;;;;;;;;6169143;23;19997;-83
2022/11/29 14:46:42;;;;;;;11.10;4.45;;;;;;;;;;6172076;23;20009;-82
2022/11/29 14:49:17;;;;;;;12.60;4.47;;;;;;;;;;6205997;23;20016;-81
2022/11/29 14:52:15;;;;;;;13.13;5.00;;;10.20;99.90;;;;;;6202266;23;20001;-81
2022/11/29 15:14:54;;;;;;;11.40;4.68;;;10.10;99.90;;;;;;6159281;23;20053;-85
2022/11/29 15:21:43;;;;;;;12.32;5.32;;;10.00;99.90;;;;;;6156670;23;20065;-85
2022/11/29 15:28:17;;;;;;;12.20;6.03;;;10.00;99.90;;;;;;6162290;23;20013;-82
2022/11/29 15:31:15;;;;;;;13.40;5.43;;;10.00;99.90;;;;;;6100285;23;20006;-85
2022/11/29 15:34:03;;;;;;;13.25;5.80;;;10.00;99.90;;;;;;6075979;23;20237;-85
2022/11/29 15:36:52;;;;;;;12.38;6.07;;;;;;;;;;5985286;23;20471;-85
2022/11/29 15:39:31;;;;;;;15.88;6.35;;;10.00;99.90;;;;;;5986786;23;20008;-85
2022/11/29 15:42:24;;;;;;;12.52;4.90;;;;;;;;;;6009253;23;20002;-86
2022/11/29 15:44:52;;;;;;;13.95;5.20;;;;;;;;;;6100791;23;20009;-85
2022/11/29 15:47:38;;;;;;;12.00;5.50;;;9.90;99.90;;;;;;6078750;23;20030;-86
2022/11/29 15:50:57;;;;;;;16.13;5.80;;;10.00;99.90;;;;;;6164790;23;20021;-86
2022/11/29 15:53:40;;;;;;;13.15;5.75;;;9.90;99.90;;;;;;6167974;23;20057;-83
2022/11/29 15:56:19;;;;;;;15.77;5.93;;;9.90;99.90;;;;;;6142358;23;20025;-88
2022/11/29 15:58:46;;;;;;;12.32;5.80;;;9.90;99.90;;;;;;6168130;23;20009;-85
2022/11/29 16:01:15;;;;;;;14.18;6.18;;;;;;;;;;6169555;23;20017;-85
2022/11/29 16:03:44;;;;;;;15.93;6.10;;;;;;;;;;6166632;23;20001;-87
2022/11/29 16:06:25;;;;;;;13.90;6.13;;;9.90;99.90;;;;;;6166172;23;20016;-85
2022/11/29 16:08:53;;;;;;;13.68;6.10;;;9.80;99.90;;;;;;6167530;23;20021;-84
2022/11/29 16:11:23;;;;;;;14.07;6.55;;;9.80;99.90;;;;;;6140130;23;20016;-86
2022/11/29 16:13:58;;;;;;;14.27;6.22;;;;;;;;;;6164484;23;20001;-85
2022/11/29 16:16:26;;;;;;;17.17;6.40;;;;;;;;;;6165320;23;20009;-85
2022/11/29 16:18:52;;;;;;;21.42;7.78;;;;;;;;;;6163394;23;20017;-85
2022/11/29 16:21:37;;;;;;;16.80;7.25;;;;;;;;;;6165187;23;20004;-85
2022/11/29 16:24:18;;;;;;;16.30;7.65;;;9.80;99.90;;;;;;6165626;23;20073;-87
2022/11/29 16:26:45;;;;;;;16.52;6.55;;;9.80;99.90;;;;;;6163904;23;20329;-87
2022/11/29 16:29:43;;;;;;;15.32;6.43;;;9.80;99.90;;;;;;6162420;23;20016;-87
2022/11/29 16:32:33;;;;;;;14.35;6.68;;;9.80;99.90;;;;;;6163062;23;20008;-86
2022/11/29 16:35:19;;;;;;;13.13;6.50;;;9.80;99.90;;;;;;6173151;23;20002;-84
2022/11/29 16:37:46;;;;;;;21.25;6.95;;;;;;;;;;6165212;23;20006;-83
2022/11/29 16:40:21;;;;;;;19.23;8.13;;;;;;;;;;6164457;23;20024;-85
2022/11/29 16:43:19;;;;;;;18.38;8.43;;;9.80;99.90;;;;;;6165571;23;20006;-85
2022/11/29 16:45:45;;;;;;;17.73;6.82;;;;;;;;;;6168499;23;20289;-86
2022/11/29 16:48:20;;;;;;;19.23;7.85;;;;;;;;;;6167232;23;20377;-86
2022/11/29 16:51:09;;;;;;;15.15;7.80;;;9.80;99.90;;;;;;6166991;23;20017;-86
2022/11/29 16:53:50;;;;;;;14.43;7.43;;;9.80;99.90;;;;;;6168815;23;20277;-86
2022/11/29 16:56:17;;;;;;;14.15;7.60;;;;;;;;;;6168586;23;20014;-87
2022/11/29 16:58:44;;;;;;;15.25;7.72;;;;;;;;;;6166650;23;20009;-82
2022/11/29 17:01:18;;;;;;;16.83;7.80;;;9.80;99.90;;;;;;6165210;23;20165;-86
2022/11/29 17:03:44;;;;;;;15.27;8.05;;;;;;;;;;6170299;23;20009;-84
2022/11/29 17:06:14;;;;;;;16.05;8.18;;;;;;;;;;6167597;23;20068;-86
2022/11/29 17:08:40;;;;;;;16.00;7.47;;;;;;;;;;6166975;23;20028;-86
2022/11/29 17:11:06;;;;;;;16.52;7.97;;;;;;;;;;6167394;23;20020;-85
2022/11/29 17:13:33;;;;;;;21.55;8.95;;;9.70;99.90;;;;;;6166692;23;19998;-85
2022/11/29 17:15:59;;;;;;;17.92;8.32;;;;;;;;;;6166596;23;20002;-86
2022/11/29 17:18:25;;;;;;;17.65;8.35;;;;;;;;;;6167160;23;20021;-88
2022/11/29 17:20:54;;;;;;;18.55;8.02;;;9.70;99.90;;;;;;6167488;23;20008;-86
2022/11/29 17:23:21;;;;;;;20.23;8.70;;;;;;;;;;6168916;23;20013;-86
2022/11/29 17:25:57;;;;;;;22.63;9.27;;;9.70;99.90;;;;;;6167412;23;20021;-87
2022/11/29 17:28:23;;;;;;;20.02;8.98;;;;;;;;;;6168016;23;19997;-85
2022/11/29 17:30:49;;;;;;;19.20;8.35;;;;;;;;;;6166387;23;20009;-87
2022/11/29 17:33:15;;;;;;;17.73;8.98;;;;;;;;;;6167889;23;19997;-86
2022/11/29 17:35:41;;;;;;;18.95;8.65;;;;;;;;;;6166775;23;20020;-86
2022/11/29 17:38:07;;;;;;;16.35;9.25;;;;;;;;;;6168708;23;20001;-85
2022/11/29 17:40:33;;;;;;;17.15;9.15;;;;;;;;;;6167033;23;20016;-85
2022/11/29 17:42:59;;;;;;;21.67;9.55;;;;;;;;;;6164261;23;20084;-88
2022/11/29 17:45:25;;;;;;;17.73;9.38;;;;;;;;;;6166876;23;20337;-86
2022/11/29 17:47:52;;;;;;;19.98;9.43;;;;;;;;;;6166906;23;20008;-89
2022/11/29 17:50:18;;;;;;;19.70;9.43;;;;;;;;;;6166769;23;20352;-86
2022/11/29 17:52:44;;;;;;;18.70;9.48;;;;;;;;;;6176194;23;20006;-85
2022/11/29 17:55:10;;;;;;;22.00;9.52;;;;;;;;;;6178495;23;20006;-85
2022/11/29 17:57:36;;;;;;;18.90;9.02;;;;;;;;;;6176497;23;20012;-87
2022/11/29 18:00:05;;;;;;;20.38;10.07;;;9.70;99.90;;;;;;6175238;23;20021;-86
2022/11/29 18:02:31;;;;;;;17.55;9.77;;;;;;;;;;6175039;23;20009;-85
2022/11/29 18:04:57;;;;;;;20.92;10.30;;;;;;;;;;6175539;23;20032;-84
2022/11/29 18:07:23;;;;;;;20.30;9.90;;;;;;;;;;6173854;23;20053;-85
2022/11/29 18:09:49;;;;;;;21.38;10.25;;;;;;;;;;6174351;23;20057;-82
2022/11/29 18:12:15;;;;;;;20.95;10.38;;;;;;;;;;6176539;23;20010;-84
2022/11/29 18:14:41;;;;;;;26.23;10.93;;;;;;;;;;6175425;23;20009;-85
2022/11/29 18:17:07;;;;;;;22.35;9.75;;;;;;;;;;6175345;23;20040;-84
2022/11/29 18:19:34;;;;;;;23.40;10.27;;;;;;;;;;6173494;23;20057;-84
2022/11/29 18:22:01;;;;;;;20.63;10.00;;;;;;;;;;6172950;23;20016;-85
2022/11/29 18:24:27;;;;;;;21.33;9.50;;;;;;;;;;6171173;23;20013;-83
2022/11/29 18:26:53;;;;;;;22.08;9.55;;;;;;;;;;6170427;23;20013;-84
2022/11/29 18:29:20;;;;;;;21.33;10.82;;;;;;;;;;6171613;23;20070;-86
2022/11/29 18:31:46;;;;;;;18.73;10.30;;;;;;;;;;6172076;23;20005;-87
2022/11/29 18:34:13;;;;;;;26.38;12.52;;;9.50;99.90;;;;;;6171754;23;20455;-82
2022/11/29 18:36:42;;;;;;;20.77;10.43;;;9.50;99.90;;;;;;6171923;23;20009;-83
2022/11/29 18:39:10;;;;;;;23.50;10.60;;;9.50;99.90;;;;;;6170797;23;20006;-86
2022/11/29 18:41:37;;;;;;;20.17;9.85;;;;;;;;;;6174181;23;20016;-84
2022/11/29 18:44:08;;;;;;;18.63;9.75;;;9.50;99.90;;;;;;6174655;23;19989;-86
2022/11/29 18:46:36;;;;;;;21.27;10.02;;;9.50;99.90;;;;;;6180564;23;20061;-86
2022/11/29 18:49:08;;;;;;;22.15;10.65;;;9.50;99.90;;;;;;6180028;23;20010;-86
2022/11/29 18:51:35;;;;;;;23.35;10.75;;;9.50;99.90;;;;;;6179426;23;20013;-85
2022/11/29 18:54:02;;;;;;;35.72;17.70;;;;;;;;;;6179206;23;20009;-84
2022/11/29 18:56:30;;;;;;;24.52;10.95;;;9.50;99.90;;;;;;6173595;23;20002;-83
2022/11/29 18:59:03;;;;;;;24.25;11.30;;;9.50;99.90;;;;;;6173731;23;20018;-83
2022/11/29 19:01:31;;;;;;;23.17;10.18;;;;;;;;;;6171216;23;20009;-86
2022/11/29 19:03:58;;;;;;;24.88;11.45;;;;;;;;;;6172249;23;20016;-85
2022/11/29 19:06:29;;;;;;;28.75;13.20;;;;;;;;;;6173071;23;20029;-87
2022/11/29 19:08:57;;;;;;;24.80;10.85;;;;;;;;;;6173529;23;20060;-87
2022/11/29 19:11:30;;;;;;;25.13;11.75;;;;;;;;;;6176251;23;20049;-86
2022/11/29 19:14:01;;;;;;;26.60;12.40;;;;;;;;;;6176535;23;19990;-85
2022/11/29 19:16:28;;;;;;;20.70;10.18;;;;;;;;;;6175945;23;20021;-86
2022/11/29 19:18:55;;;;;;;23.00;11.13;;;;;;;;;;6175756;23;20276;-86
2022/11/29 19:21:23;;;;;;;23.88;10.93;;;;;;;;;;6175450;23;20005;-86
2022/11/29 19:23:53;;;;;;;29.98;13.43;;;;;;;;;;6174444;23;20341;-85
2022/11/29 19:26:22;;;;;;;26.55;11.50;;;;;;;;;;6174368;23;20037;-86
2022/11/29 19:28:52;;;;;;;24.10;10.43;;;;;;;;;;6173217;23;20002;-87
2022/11/29 19:31:23;;;;;;;23.10;9.70;;;;;;;;;;6174836;23;20449;-85
2022/11/29 19:33:51;;;;;;;21.95;10.00;;;;;;;;;;6172842;23;20005;-85
2022/11/29 19:36:20;;;;;;;25.35;10.57;;;9.50;99.90;;;;;;6174675;23;20013;-86
2022/11/29 19:38:46;;;;;;;23.20;11.10;;;;;;;;;;6173565;23;20012;-87
2022/11/29 19:41:12;;;;;;;22.52;10.45;;;;;;;;;;6173973;23;20010;-84
2022/11/29 19:43:38;;;;;;;23.08;11.73;;;;;;;;;;6175674;23;20005;-88
2022/11/29 19:46:12;;;;;;;25.75;11.95;;;9.50;99.90;;;;;;6175208;23;20017;-86
2022/11/29 19:48:38;;;;;;;23.42;10.88;;;;;;;;;;6174182;23;20339;-88
2022/11/29 19:51:05;;;;;;;26.20;12.85;;;;;;;;;;6172614;23;20009;-85
2022/11/29 19:53:32;;;;;;;24.38;12.30;;;;;;;;;;6174189;23;20028;-85
2022/11/29 19:55:58;;;;;;;27.20;11.82;;;;;;;;;;6175119;23;20024;-87
2022/11/29 19:58:25;;;;;;;28.35;11.80;;;;;;;;;;6173741;23;20023;-86
2022/11/29 20:00:51;;;;;;;24.75;11.55;;;;;;;;;;6174690;23;20002;-84
2022/11/29 20:03:17;;;;;;;23.52;11.75;;;;;;;;;;6177467;23;20009;-86
2022/11/29 20:05:52;;;;;;;22.35;10.65;;;;;;;;;;6175753;23;20001;-89
2022/11/29 20:08:20;;;;;;;27.85;10.80;;;;;;;;;;6175446;23;20005;-85
2022/11/29 20:10:46;;;;;;;27.25;12.15;;;;;;;;;;6175561;23;20006;-86
2022/11/29 20:13:12;;;;;;;23.45;11.88;;;;;;;;;;6175123;23;20020;-87
2022/11/29 20:15:39;;;;;;;26.08;13.02;;;;;;;;;;6176314;23;20357;-86
2022/11/29 20:18:07;;;;;;;26.55;11.98;;;;;;;;;;6175292;23;20021;-87
2022/11/29 20:20:33;;;;;;;26.00;11.48;;;;;;;;;;6174190;23;20017;-85
2022/11/29 20:22:59;;;;;;;29.77;11.95;;;;;;;;;;6175900;23;20008;-86
